Time;durP1;ratioP1;P1;durP2;ratioP2;P2;SDS_P1;SDS_P2;PMS_P1;PMS_P2;Temp;Humidity;BMP_temperature;BMP_pressure;BME280_temperature;BME280_humidity;BME280_pressure;Samples;Min_cycle;Max_cycle;Signal;HPM_P1;HPM_P2
2022/06/03 00:02:54;;;;;;;1.00;0.90;;;24.80;57.10;;;;;;5081646;28;20438;-82
2022/06/03 00:05:37;;;;;;;1.27;0.90;;;24.80;57.10;;;;;;5115876;28;20434;-82
2022/06/03 00:08:11;;;;;;;1.20;1.00;;;24.80;57.20;;;;;;5114174;28;20766;-82
2022/06/03 00:11:07;;;;;;;0.90;0.80;;;24.80;57.20;;;;;;5116618;28;20448;-83
2022/06/03 00:14:09;;;;;;;1.20;0.93;;;24.80;57.20;;;;;;5116041;28;20981;-84
2022/06/03 00:16:43;;;;;;;1.10;1.00;;;24.80;57.20;;;;;;5060823;28;20427;-84
2022/06/03 00:19:26;;;;;;;1.10;0.80;;;24.80;57.30;;;;;;5116128;28;20443;-83
2022/06/03 00:22:20;;;;;;;1.10;0.90;;;24.80;57.30;;;;;;5098294;28;20437;-84
2022/06/03 00:25:02;;;;;;;1.00;0.90;;;24.80;57.20;;;;;;5105847;28;20447;-83
2022/06/03 00:27:57;;;;;;;1.40;0.90;;;24.80;57.30;;;;;;5107371;28;20465;-83
2022/06/03 00:30:35;;;;;;;1.10;0.90;;;24.80;57.20;;;;;;5115830;28;20454;-83
2022/06/03 00:33:32;;;;;;;1.20;0.80;;;24.80;57.20;;;;;;5115957;28;20451;-86
2022/06/03 00:36:17;;;;;;;1.00;0.80;;;24.80;57.30;;;;;;5095230;28;20486;-81
2022/06/03 00:38:57;;;;;;;1.10;0.93;;;24.80;57.30;;;;;;5115929;28;20445;-82
2022/06/03 00:41:37;;;;;;;1.10;0.90;;;24.70;57.20;;;;;;5115961;28;20466;-82
2022/06/03 00:44:25;;;;;;;1.00;0.80;;;24.80;57.20;;;;;;5115402;28;20542;-81
2022/06/03 00:47:07;;;;;;;0.90;0.77;;;24.80;57.20;;;;;;5115945;28;20473;-82
2022/06/03 00:49:51;;;;;;;1.10;0.90;;;24.80;57.20;;;;;;5115552;28;20514;-82
2022/06/03 00:52:47;;;;;;;0.90;0.70;;;24.70;57.20;;;;;;5115627;28;20925;-82
2022/06/03 00:55:42;;;;;;;1.00;0.80;;;24.70;57.20;;;;;;5115213;28;20501;-83
2022/06/03 00:58:25;;;;;;;1.20;0.87;;;24.70;57.20;;;;;;5115607;28;20542;-82
2022/06/03 01:01:07;;;;;;;1.20;1.10;;;24.70;57.20;;;;;;5115482;28;20535;-82
2022/06/03 01:03:55;;;;;;;1.30;0.90;;;24.70;57.20;;;;;;5115883;28;20830;-82
2022/06/03 01:06:36;;;;;;;1.00;0.83;;;24.70;57.80;;;;;;5115550;28;20435;-82
2022/06/03 01:09:28;;;;;;;1.10;1.00;;;24.70;57.30;;;;;;5115347;28;20492;-85
2022/06/03 01:12:24;;;;;;;1.00;0.73;;;24.70;57.20;;;;;;5115239;28;20446;-82
2022/06/03 01:15:03;;;;;;;1.10;0.83;;;24.70;57.80;;;;;;5115458;28;20808;-82
2022/06/03 01:17:45;;;;;;;1.07;0.97;;;24.70;57.30;;;;;;5115273;28;20859;-82
2022/06/03 01:20:24;;;;;;;1.00;0.90;;;24.70;57.30;;;;;;5116231;27;20448;-82
2022/06/03 01:23:25;;;;;;;0.90;0.80;;;24.70;57.30;;;;;;5115287;28;20431;-82
2022/06/03 01:26:30;;;;;;;1.30;0.87;;;24.70;57.30;;;;;;5101375;28;20469;-82
2022/06/03 01:29:27;;;;;;;1.00;0.90;;;24.70;57.30;;;;;;5096729;28;20443;-85
2022/06/03 01:32:40;;;;;;;0.90;0.80;;;24.70;57.30;;;;;;5093163;28;20534;-83
2022/06/03 01:35:25;;;;;;;1.20;1.03;;;24.70;57.30;;;;;;5114747;28;20562;-82
2022/06/03 01:37:56;;;;;;;1.00;0.80;;;24.60;57.20;;;;;;5109633;28;20442;-82
2022/06/03 01:40:47;;;;;;;1.10;0.93;;;24.60;57.30;;;;;;5096783;28;20551;-82
2022/06/03 01:43:46;;;;;;;1.00;0.80;;;24.70;57.30;;;;;;5114201;28;20482;-83
2022/06/03 01:46:26;;;;;;;0.90;0.77;;;24.70;57.30;;;;;;5114764;28;20442;-82
2022/06/03 01:49:31;;;;;;;1.30;0.90;;;24.60;57.20;;;;;;5114628;28;20443;-85
2022/06/03 01:52:35;;;;;;;1.10;1.00;;;24.70;57.20;;;;;;5114461;28;20581;-82
2022/06/03 01:55:55;;;;;;;1.20;0.90;;;24.70;57.20;;;;;;5114710;28;20496;-82
2022/06/03 01:58:41;;;;;;;1.30;1.00;;;24.60;57.20;;;;;;5114426;28;20443;-82
2022/06/03 02:01:31;;;;;;;1.00;0.90;;;24.60;57.20;;;;;;5114296;28;20435;-82
2022/06/03 02:04:14;;;;;;;1.10;1.00;;;24.60;57.20;;;;;;5114069;28;20877;-83
2022/06/03 02:07:27;;;;;;;1.00;0.90;;;24.60;57.20;;;;;;5114291;28;20443;-83
2022/06/03 02:10:36;;;;;;;1.70;0.90;;;24.60;57.20;;;;;;5114338;28;20439;-83
2022/06/03 02:13:31;;;;;;;1.10;0.90;;;24.60;57.20;;;;;;5077746;28;20910;-82
2022/06/03 02:16:28;;;;;;;1.17;0.90;;;24.60;57.20;;;;;;5114374;28;20460;-83
2022/06/03 02:19:23;;;;;;;1.00;0.70;;;24.60;57.20;;;;;;5110449;28;20443;-82
2022/06/03 02:22:41;;;;;;;0.90;0.80;;;24.60;57.20;;;;;;5113829;28;20784;-86
2022/06/03 02:25:30;;;;;;;0.90;0.70;;;24.60;57.10;;;;;;4982761;28;20778;-83
2022/06/03 02:28:32;;;;;;;1.37;1.00;;;24.60;57.20;;;;;;5011780;28;20530;-85
2022/06/03 02:31:30;;;;;;;1.40;1.00;;;24.60;57.20;;;;;;5093199;28;20445;-85
2022/06/03 02:34:29;;;;;;;1.03;0.87;;;24.60;57.20;;;;;;5113756;28;20484;-83
2022/06/03 02:37:14;;;;;;;1.10;1.00;;;24.60;57.20;;;;;;5113836;28;20439;-82
2022/06/03 02:40:34;;;;;;;1.00;0.80;;;24.60;57.20;;;;;;5114846;28;20474;-83
2022/06/03 02:43:19;;;;;;;1.10;0.93;;;24.60;57.10;;;;;;5113770;28;20428;-83
2022/06/03 02:46:35;;;;;;;1.00;0.80;;;24.60;57.20;;;;;;5114013;28;20450;-83
2022/06/03 02:49:33;;;;;;;1.00;0.80;;;24.60;57.10;;;;;;5011462;28;21066;-83
2022/06/03 02:52:27;;;;;;;1.00;0.90;;;24.50;57.10;;;;;;5017645;28;20447;-83
2022/06/03 02:55:36;;;;;;;1.07;0.87;;;24.60;57.20;;;;;;5128953;28;20481;-83
2022/06/03 02:58:27;;;;;;;1.10;0.90;;;24.60;57.10;;;;;;5089777;28;20537;-82
2022/06/03 03:01:19;;;;;;;1.93;1.00;;;24.60;57.10;;;;;;5128572;28;20534;-83
2022/06/03 03:04:15;;;;;;;1.10;0.90;;;24.60;57.10;;;;;;5115450;28;20450;-83
2022/06/03 03:07:15;;;;;;;1.10;0.90;;;24.60;57.10;;;;;;5134144;28;20517;-83
2022/06/03 03:10:09;;;;;;;1.20;0.80;;;24.60;57.10;;;;;;5097753;27;20437;-85
2022/06/03 03:13:20;;;;;;;0.90;0.73;;;24.60;57.10;;;;;;5137795;27;20465;-83
2022/06/03 03:16:22;;;;;;;1.30;1.00;;;24.60;57.10;;;;;;5138307;27;20481;-83
2022/06/03 03:19:24;;;;;;;1.00;0.90;;;24.60;57.00;;;;;;5102597;27;20525;-85
2022/06/03 03:22:28;;;;;;;1.10;1.00;;;24.50;57.00;;;;;;5083822;28;20461;-83
2022/06/03 03:25:10;;;;;;;1.00;0.90;;;24.50;57.00;;;;;;5080972;28;20569;-83
2022/06/03 03:28:24;;;;;;;1.00;0.70;;;24.50;57.00;;;;;;5117359;28;20439;-83
2022/06/03 03:31:08;;;;;;;1.20;0.90;;;24.60;57.00;;;;;;5117352;28;20441;-83
2022/06/03 03:34:00;;;;;;;1.00;0.80;;;24.50;57.00;;;;;;5117351;28;20522;-85
2022/06/03 03:37:00;;;;;;;1.00;0.83;;;24.60;57.00;;;;;;5114670;28;20466;-84
2022/06/03 03:40:20;;;;;;;1.00;0.90;;;24.60;57.00;;;;;;5117101;28;20466;-83
2022/06/03 03:43:23;;;;;;;1.10;0.97;;;24.60;56.90;;;;;;5117206;28;20461;-85
2022/06/03 03:46:26;;;;;;;1.17;1.00;;;24.60;57.00;;;;;;5117130;28;20485;-85
2022/06/03 03:49:21;;;;;;;1.10;0.80;;;24.60;57.00;;;;;;5117071;28;20438;-83
2022/06/03 03:52:12;;;;;;;1.10;1.00;;;24.60;56.90;;;;;;5116977;27;20431;-82
2022/06/03 03:55:14;;;;;;;1.10;1.00;;;24.60;57.00;;;;;;5116865;28;20482;-83
2022/06/03 03:58:06;;;;;;;1.10;0.90;;;24.60;56.90;;;;;;5116796;28;20438;-83
2022/06/03 04:01:24;;;;;;;1.00;0.90;;;24.60;57.00;;;;;;5116848;28;20526;-83
2022/06/03 04:04:19;;;;;;;2.20;0.90;;;24.60;56.90;;;;;;5120670;27;20928;-84
2022/06/03 04:07:15;;;;;;;0.97;0.80;;;24.60;56.90;;;;;;5137190;27;20473;-82
2022/06/03 04:10:12;;;;;;;1.17;0.80;;;24.60;56.90;;;;;;5118841;27;20435;-84
2022/06/03 04:13:24;;;;;;;1.20;0.93;;;24.60;56.80;;;;;;5105877;27;20562;-85
2022/06/03 04:16:16;;;;;;;1.03;0.90;;;24.60;56.80;;;;;;5079069;28;20561;-83
2022/06/03 04:19:14;;;;;;;1.07;0.80;;;24.60;56.90;;;;;;5116074;28;20435;-83
2022/06/03 04:22:17;;;;;;;1.00;0.80;;;24.60;56.90;;;;;;5116223;28;20451;-83
2022/06/03 04:25:25;;;;;;;1.20;1.10;;;24.60;56.80;;;;;;5078252;28;20530;-83
2022/06/03 04:28:27;;;;;;;1.10;0.90;;;24.60;56.80;;;;;;5116098;28;20439;-83
2022/06/03 04:31:27;;;;;;;1.00;0.80;;;24.60;56.90;;;;;;5135123;27;20929;-83
2022/06/03 04:34:28;;;;;;;1.07;0.90;;;24.60;56.80;;;;;;5136902;27;20470;-83
2022/06/03 04:37:25;;;;;;;1.20;0.90;;;24.60;56.90;;;;;;5132386;27;20537;-83
2022/06/03 04:40:24;;;;;;;1.00;0.80;;;24.60;56.90;;;;;;5108931;27;20435;-83
2022/06/03 04:43:30;;;;;;;1.00;0.80;;;24.60;56.80;;;;;;5136257;27;20525;-83
2022/06/03 04:46:38;;;;;;;1.10;0.80;;;24.60;56.80;;;;;;5109921;27;20429;-85
2022/06/03 04:49:41;;;;;;;1.10;1.00;;;24.60;56.90;;;;;;5136296;27;20440;-83
2022/06/03 04:52:46;;;;;;;1.00;0.80;;;24.60;56.80;;;;;;5133174;27;20444;-82
2022/06/03 04:55:48;;;;;;;1.10;0.90;;;24.60;56.80;;;;;;5115517;28;20559;-83
2022/06/03 04:58:59;;;;;;;1.77;1.03;;;24.60;56.80;;;;;;5121009;27;20446;-86
2022/06/03 05:02:09;;;;;;;1.20;1.07;;;24.60;56.80;;;;;;5127611;27;20431;-83
2022/06/03 05:05:13;;;;;;;0.97;0.80;;;24.60;56.80;;;;;;5118705;27;20478;-83
2022/06/03 05:08:14;;;;;;;1.00;0.80;;;24.60;56.80;;;;;;5115605;28;20530;-84
2022/06/03 05:11:31;;;;;;;1.00;0.90;;;24.60;56.90;;;;;;5070736;28;20432;-84
2022/06/03 05:14:31;;;;;;;1.30;0.90;;;24.60;56.90;;;;;;5114909;28;20471;-83
2022/06/03 05:17:28;;;;;;;1.00;0.90;;;24.60;56.90;;;;;;5097633;28;20990;-82
2022/06/03 05:20:32;;;;;;;1.20;0.80;;;24.50;56.80;;;;;;5114736;28;20526;-83
2022/06/03 05:23:31;;;;;;;1.00;0.90;;;24.50;56.90;;;;;;5114952;28;20854;-83
2022/06/03 05:26:36;;;;;;;1.03;0.83;;;24.50;56.90;;;;;;5114805;28;20807;-85
2022/06/03 05:29:34;;;;;;;1.30;1.00;;;24.50;56.90;;;;;;5080472;28;20463;-87
2022/06/03 05:32:30;;;;;;;1.30;1.20;;;24.50;56.90;;;;;;5123135;27;20473;-83
2022/06/03 05:35:20;;;;;;;1.40;0.80;;;24.50;56.90;;;;;;5134922;27;20473;-83
2022/06/03 05:38:07;;;;;;;1.43;0.80;;;24.50;56.90;;;;;;5110993;28;20443;-86
2022/06/03 05:40:45;;;;;;;1.43;1.00;;;24.50;57.00;;;;;;5115124;28;20803;-82
2022/06/03 05:43:51;;;;;;;1.20;0.90;;;24.50;57.10;;;;;;5115332;28;20510;-84
2022/06/03 05:46:26;;;;;;;1.10;1.00;;;24.60;57.70;;;;;;5032202;28;20529;-86
2022/06/03 05:49:17;;;;;;;1.87;1.10;;;24.50;57.30;;;;;;5099462;28;20486;-83
2022/06/03 05:52:01;;;;;;;1.27;1.00;;;24.50;57.20;;;;;;5113336;28;20500;-83
2022/06/03 05:54:42;;;;;;;1.50;1.00;;;24.50;57.40;;;;;;5114584;28;20518;-85
2022/06/03 05:57:20;;;;;;;1.40;1.30;;;24.50;57.50;;;;;;5114471;28;20534;-83
2022/06/03 06:00:23;;;;;;;1.50;0.90;;;24.50;57.40;;;;;;5114870;28;20431;-83
2022/06/03 06:03:04;;;;;;;1.20;1.10;;;24.60;57.60;;;;;;5088433;28;20530;-83
2022/06/03 06:05:38;;;;;;;1.00;0.80;;;24.50;57.50;;;;;;5114325;28;20479;-84
2022/06/03 06:08:18;;;;;;;2.90;2.00;;;24.60;57.50;;;;;;5114270;28;20575;-83
2022/06/03 06:10:52;;;;;;;2.00;1.90;;;24.50;57.40;;;;;;5114388;28;20478;-82
2022/06/03 06:13:52;;;;;;;1.70;1.60;;;24.40;57.70;;;;;;5113900;27;21018;-82
2022/06/03 06:16:21;;;;;;;1.70;1.43;;;24.50;57.20;;;;;;5114030;28;20566;-84
2022/06/03 06:18:58;;;;;;;1.50;1.20;;;24.40;57.20;;;;;;5114332;28;20442;-83
2022/06/03 06:21:40;;;;;;;1.10;1.00;;;24.40;57.50;;;;;;5114071;28;20437;-84
2022/06/03 06:24:14;;;;;;;1.83;1.30;;;24.40;57.50;;;;;;5115330;27;20538;-83
2022/06/03 06:27:04;;;;;;;1.90;1.30;;;24.50;57.50;;;;;;5113628;28;20488;-84
2022/06/03 06:30:02;;;;;;;1.37;1.17;;;24.50;57.50;;;;;;5113208;28;20435;-84
2022/06/03 06:32:48;;;;;;;1.50;1.40;;;24.50;57.50;;;;;;5112698;28;20434;-83
2022/06/03 06:35:49;;;;;;;1.63;1.53;;;24.40;57.40;;;;;;5113894;28;20487;-83
2022/06/03 06:38:22;;;;;;;2.03;1.50;;;24.40;57.40;;;;;;5114007;28;20845;-83
2022/06/03 06:41:06;;;;;;;1.20;1.10;;;24.40;57.50;;;;;;5113999;28;20468;-83
2022/06/03 06:43:40;;;;;;;1.33;1.23;;;24.50;57.50;;;;;;5113027;28;20550;-83
2022/06/03 06:46:16;;;;;;;4.40;1.50;;;24.50;57.50;;;;;;5113488;28;20540;-83
2022/06/03 06:48:55;;;;;;;1.30;1.20;;;24.50;58.00;;;;;;5113314;28;20933;-83
2022/06/03 06:51:42;;;;;;;2.03;1.13;;;24.50;57.40;;;;;;5113744;28;20857;-84
2022/06/03 06:54:17;;;;;;;1.30;1.10;;;24.50;57.40;;;;;;5112726;28;20872;-81
2022/06/03 06:56:50;;;;;;;1.93;1.37;;;24.50;58.00;;;;;;5113153;28;20567;-82
2022/06/03 06:59:23;;;;;;;2.93;1.30;;;24.50;57.40;;;;;;5113741;28;20531;-81
2022/06/03 07:01:55;;;;;;;4.40;1.10;;;24.50;57.40;;;;;;5113643;28;20443;-81
2022/06/03 07:04:27;;;;;;;3.87;1.40;;;24.50;57.90;;;;;;5113534;28;20520;-89
2022/06/03 07:07:01;;;;;;;1.10;1.00;;;24.50;57.40;;;;;;5113686;28;20491;-81
2022/06/03 07:09:50;;;;;;;4.47;1.37;;;24.50;57.40;;;;;;5113430;28;20479;-81
2022/06/03 07:12:21;;;;;;;2.90;1.60;;;24.50;57.50;;;;;;5113440;28;20954;-82
2022/06/03 07:14:59;;;;;;;2.50;1.70;;;24.50;57.40;;;;;;5113566;28;20443;-83
2022/06/03 07:20:37;;;;;;;9.93;2.00;;;24.50;57.40;;;;;;5113921;28;20406;-83
2022/06/03 07:23:11;;;;;;;14.00;2.90;;;24.50;57.50;;;;;;5113419;28;20442;-83
2022/06/03 07:25:54;;;;;;;9.10;2.70;;;24.50;57.60;;;;;;5113840;28;20438;-83
2022/06/03 07:28:32;;;;;;;14.13;3.20;;;24.50;57.60;;;;;;5113464;28;20443;-83
2022/06/03 07:31:09;;;;;;;9.67;1.83;;;24.60;57.70;;;;;;5113334;28;20482;-88
2022/06/03 07:33:42;;;;;;;5.83;1.90;;;24.50;57.60;;;;;;5112042;28;20439;-83
2022/06/03 07:36:14;;;;;;;7.17;1.63;;;24.50;57.80;;;;;;5112548;28;20981;-88
2022/06/03 07:38:47;;;;;;;3.97;1.50;;;24.50;57.90;;;;;;5112765;28;20474;-83
2022/06/03 07:41:20;;;;;;;11.23;1.77;;;24.50;57.80;;;;;;5114145;28;20439;-81
2022/06/03 07:43:51;;;;;;;7.77;2.20;;;24.60;58.40;;;;;;5113122;28;21016;-82
2022/06/03 07:46:24;;;;;;;3.57;2.03;;;24.60;58.10;;;;;;5113169;28;20534;-85
2022/06/03 07:48:51;;;;;;;5.50;2.40;;;24.60;58.30;;;;;;5113160;28;20475;-86
2022/06/03 07:51:22;;;;;;;2.50;1.53;;;24.60;58.40;;;;;;5113066;28;20513;-83
2022/06/03 07:53:57;;;;;;;5.43;2.40;;;24.70;58.30;;;;;;5113233;28;21002;-83
2022/06/03 07:56:27;;;;;;;4.67;1.47;;;24.60;58.30;;;;;;5116512;28;20573;-85
2022/06/03 07:58:57;;;;;;;8.53;1.77;;;24.60;58.20;;;;;;5116682;28;20447;-83
2022/06/03 08:01:26;;;;;;;5.83;1.77;;;24.60;58.10;;;;;;5116620;28;20438;-82
2022/06/03 08:03:54;;;;;;;1.80;1.50;;;24.60;58.20;;;;;;5122090;27;20529;-82
2022/06/03 08:06:30;;;;;;;6.23;1.77;;;24.60;58.80;;;;;;5136883;27;20820;-82
2022/06/03 08:11:44;;;;;;;3.20;1.53;;;24.60;58.20;;;;;;5137105;27;20406;-82
2022/06/03 08:14:12;;;;;;;3.30;1.73;;;24.60;58.20;;;;;;5136864;27;20466;-82
2022/06/03 08:16:41;;;;;;;4.13;1.60;;;24.60;58.10;;;;;;5136678;27;20557;-82
2022/06/03 08:19:12;;;;;;;3.40;1.90;;;24.60;58.10;;;;;;5118808;27;20526;-82
2022/06/03 08:21:43;;;;;;;2.70;1.83;;;24.60;58.00;;;;;;5116404;28;20427;-82
2022/06/03 08:24:13;;;;;;;6.97;1.63;;;24.60;58.00;;;;;;5116768;27;20862;-82
2022/06/03 08:26:43;;;;;;;4.33;1.63;;;24.60;58.10;;;;;;5117080;27;20490;-80
2022/06/03 08:29:23;;;;;;;2.80;1.37;;;24.60;58.10;;;;;;5133948;27;20925;-80
2022/06/03 08:31:51;;;;;;;3.23;1.70;;;24.70;58.10;;;;;;5124433;27;20449;-84
2022/06/03 08:34:24;;;;;;;6.60;1.60;;;24.70;58.80;;;;;;5130542;27;20507;-85
2022/06/03 08:36:52;;;;;;;2.87;1.83;;;24.80;58.30;;;;;;5137262;27;20516;-85
2022/06/03 08:39:23;;;;;;;2.20;1.50;;;24.70;58.30;;;;;;5134045;27;20522;-83
2022/06/03 08:42:17;;;;;;;4.60;1.40;;;24.70;58.30;;;;;;5136890;27;20433;-83
2022/06/03 08:45:26;;;;;;;3.50;1.37;;;24.70;58.20;;;;;;5128733;27;20533;-83
2022/06/03 08:47:56;;;;;;;2.83;1.17;;;24.80;58.20;;;;;;5129371;27;20449;-83
2022/06/03 08:50:29;;;;;;;5.97;1.80;;;24.70;58.10;;;;;;5135976;27;20575;-84
2022/06/03 08:53:01;;;;;;;3.43;1.47;;;24.70;58.10;;;;;;5135809;27;20449;-85
2022/06/03 08:55:47;;;;;;;4.50;1.53;;;24.80;58.20;;;;;;5121601;27;20836;-84
2022/06/03 08:58:31;;;;;;;2.80;1.70;;;24.80;58.10;;;;;;5129721;27;20473;-86
2022/06/03 09:01:05;;;;;;;4.47;1.30;;;24.80;58.20;;;;;;5123718;27;20952;-82
2022/06/03 09:03:43;;;;;;;3.40;1.30;;;24.80;58.10;;;;;;5115892;27;20442;-82
2022/06/03 09:06:15;;;;;;;2.23;1.60;;;24.90;58.30;;;;;;5115013;28;21032;-82
2022/06/03 09:08:47;;;;;;;1.50;1.23;;;24.90;58.40;;;;;;5115491;27;20510;-84
2022/06/03 09:11:21;;;;;;;3.30;1.67;;;24.90;58.40;;;;;;5115340;28;20464;-82
2022/06/03 09:13:52;;;;;;;3.30;1.60;;;24.90;58.30;;;;;;5115142;28;20965;-82
2022/06/03 09:16:21;;;;;;;3.00;1.23;;;24.90;58.30;;;;;;5114974;28;20578;-82
2022/06/03 09:18:53;;;;;;;2.30;1.10;;;25.00;58.40;;;;;;5115035;28;20450;-82
2022/06/03 09:21:24;;;;;;;3.00;1.20;;;25.00;58.30;;;;;;5115133;28;20448;-82
2022/06/03 09:23:56;;;;;;;1.97;1.00;;;25.00;58.30;;;;;;5115036;28;20857;-81
2022/06/03 09:26:26;;;;;;;2.00;1.10;;;25.00;58.30;;;;;;5114979;28;20457;-82
2022/06/03 09:28:54;;;;;;;4.97;1.27;;;25.10;58.40;;;;;;5114855;28;20435;-82
2022/06/03 09:31:23;;;;;;;2.20;1.50;;;25.00;58.30;;;;;;5114783;28;20546;-82
2022/06/03 09:33:52;;;;;;;4.37;1.40;;;25.10;58.30;;;;;;5114661;28;20438;-82
2022/06/03 09:36:23;;;;;;;2.13;1.07;;;25.10;58.30;;;;;;5114577;28;20475;-82
2022/06/03 09:38:54;;;;;;;1.30;1.10;;;25.10;58.30;;;;;;5114701;28;20832;-84
2022/06/03 09:41:25;;;;;;;4.90;1.87;;;25.20;58.30;;;;;;5114649;27;20490;-82
2022/06/03 09:43:55;;;;;;;2.17;1.10;;;25.10;58.30;;;;;;5114591;28;20455;-83
2022/06/03 09:46:28;;;;;;;2.70;1.30;;;25.20;58.30;;;;;;5114568;28;20471;-83
2022/06/03 09:48:57;;;;;;;1.40;1.13;;;25.20;58.30;;;;;;5114559;28;20439;-82
2022/06/03 09:51:55;;;;;;;1.70;0.90;;;25.20;58.30;;;;;;5114069;28;20486;-79
2022/06/03 09:54:21;;;;;;;2.10;1.30;;;25.20;58.30;;;;;;5115309;27;20436;-81
2022/06/03 09:56:51;;;;;;;1.30;1.20;;;25.20;58.30;;;;;;5116626;27;20478;-81
2022/06/03 09:59:20;;;;;;;3.10;1.20;;;25.20;58.60;;;;;;5133583;27;20864;-81
2022/06/03 10:01:50;;;;;;;1.70;1.60;;;25.30;58.20;;;;;;5114674;28;20439;-81
2022/06/03 10:04:18;;;;;;;1.30;1.03;;;25.20;58.30;;;;;;5114704;27;20438;-81
2022/06/03 10:06:47;;;;;;;1.40;1.30;;;25.30;58.30;;;;;;5114325;28;20486;-80
2022/06/03 10:15:37;;;;;;;2.90;2.00;;;25.30;58.30;;;;;;5115700;27;20415;-85
2022/06/03 10:17:35;;;;;;;2.30;1.90;;;25.20;58.20;;;;;;5112669;28;20486;-84
2022/06/03 10:20:02;;;;;;;4.50;1.87;;;25.20;58.20;;;;;;5114046;28;20934;-85
2022/06/03 10:22:29;;;;;;;2.00;1.60;;;25.20;58.20;;;;;;5114089;28;20949;-84
2022/06/03 10:24:57;;;;;;;2.30;1.53;;;25.20;58.10;;;;;;5114017;28;20538;-84
2022/06/03 10:27:24;;;;;;;2.10;1.53;;;25.10;58.00;;;;;;5113952;28;20443;-81
2022/06/03 10:29:52;;;;;;;1.80;1.70;;;25.10;57.90;;;;;;5113746;28;20442;-81
2022/06/03 10:32:22;;;;;;;4.97;1.87;;;25.20;58.20;;;;;;5113910;28;20797;-82
2022/06/03 10:34:50;;;;;;;2.10;1.90;;;25.20;58.40;;;;;;5113818;28;20463;-81
2022/06/03 10:37:22;;;;;;;2.27;1.57;;;25.20;59.00;;;;;;5126012;27;21102;-81
2022/06/03 10:39:49;;;;;;;1.83;1.73;;;25.20;58.50;;;;;;5125213;27;20439;-85
2022/06/03 10:42:22;;;;;;;1.70;1.60;;;25.20;58.50;;;;;;5113714;28;20509;-84
2022/06/03 10:44:55;;;;;;;2.37;1.90;;;25.20;58.50;;;;;;5114375;28;20526;-80
2022/06/03 10:47:32;;;;;;;1.97;1.50;;;25.20;58.50;;;;;;5112948;28;20534;-80
2022/06/03 10:50:02;;;;;;;2.53;1.63;;;25.20;58.50;;;;;;5134485;27;20439;-83
2022/06/03 11:01:09;;;;;;;1.80;1.70;;;25.20;58.50;;;;;;5125203;28;20480;-84
2022/06/03 11:03:41;;;;;;;1.40;1.20;;;25.10;58.40;;;;;;5132906;28;20468;-84
2022/06/03 11:06:14;;;;;;;3.30;1.60;;;25.10;58.20;;;;;;5134282;27;20877;-83
2022/06/03 11:08:49;;;;;;;3.63;1.80;;;25.10;58.10;;;;;;5134030;27;20517;-83
2022/06/03 11:11:42;;;;;;;1.83;1.47;;;25.20;58.20;;;;;;5130252;27;20530;-84
2022/06/03 11:14:36;;;;;;;2.03;1.73;;;25.10;58.00;;;;;;5113129;28;20471;-82
2022/06/03 11:17:06;;;;;;;4.60;2.10;;;25.10;58.10;;;;;;5113579;28;20912;-82
2022/06/03 11:19:36;;;;;;;1.53;1.13;;;25.10;58.40;;;;;;5113265;28;20474;-82
2022/06/03 11:22:28;;;;;;;1.43;1.33;;;25.10;58.50;;;;;;5113162;28;20533;-83
2022/06/03 11:25:03;;;;;;;2.17;1.47;;;25.20;58.50;;;;;;5111870;28;20431;-82
2022/06/03 11:27:46;;;;;;;1.60;1.50;;;25.10;58.50;;;;;;5113297;28;20438;-83
2022/06/03 11:30:18;;;;;;;1.30;1.20;;;25.10;58.50;;;;;;5116573;28;20941;-82
2022/06/03 11:32:50;;;;;;;1.97;1.60;;;25.10;58.50;;;;;;5116922;28;20937;-83
2022/06/03 11:35:26;;;;;;;1.77;1.43;;;25.10;58.60;;;;;;5117045;28;20689;-83
2022/06/03 11:37:57;;;;;;;2.93;2.43;;;25.10;58.60;;;;;;5116721;28;20478;-84
2022/06/03 11:40:29;;;;;;;2.40;2.20;;;25.10;58.60;;;;;;5117018;27;20534;-84
2022/06/03 11:43:01;;;;;;;3.10;2.90;;;25.20;58.60;;;;;;5115369;28;20500;-84
2022/06/03 11:45:38;;;;;;;3.27;2.53;;;25.20;58.60;;;;;;5116828;28;20493;-83
2022/06/03 11:48:13;;;;;;;3.00;2.80;;;25.20;58.60;;;;;;5116734;28;20452;-83
2022/06/03 11:50:40;;;;;;;2.93;2.73;;;25.20;58.70;;;;;;5116756;28;20947;-82
2022/06/03 11:53:08;;;;;;;4.00;3.70;;;25.10;58.50;;;;;;5116720;28;20525;-82
2022/06/03 11:55:38;;;;;;;5.93;3.90;;;25.10;58.40;;;;;;5116604;28;20471;-82
2022/06/03 11:58:10;;;;;;;6.20;5.13;;;25.10;58.40;;;;;;5116363;28;21050;-82
2022/06/03 12:00:43;;;;;;;5.50;5.03;;;25.10;58.40;;;;;;5116498;28;20446;-82
2022/06/03 12:03:26;;;;;;;6.70;4.97;;;25.00;58.40;;;;;;5116333;28;20537;-82
2022/06/03 12:05:59;;;;;;;6.37;5.50;;;25.00;58.50;;;;;;5116283;28;20501;-82
2022/06/03 12:08:35;;;;;;;5.43;4.93;;;25.00;58.50;;;;;;5118857;28;20530;-81
2022/06/03 12:11:09;;;;;;;5.47;4.73;;;25.00;58.50;;;;;;5122808;27;20495;-81
2022/06/03 12:13:35;;;;;;;4.40;4.10;;;25.10;58.50;;;;;;5136803;27;20842;-82
2022/06/03 12:16:06;;;;;;;4.80;4.40;;;25.00;58.40;;;;;;5127399;27;20482;-81
2022/06/03 12:19:03;;;;;;;6.50;5.60;;;25.00;58.30;;;;;;5115816;28;20514;-81
2022/06/03 12:21:52;;;;;;;8.33;7.53;;;25.00;58.30;;;;;;5115973;28;20446;-82
2022/06/03 12:24:46;;;;;;;6.87;6.27;;;25.00;58.40;;;;;;5109087;27;20436;-81
2022/06/03 12:27:26;;;;;;;8.27;7.47;;;25.00;58.40;;;;;;5115513;28;20476;-81
2022/06/03 12:30:18;;;;;;;10.60;9.60;;;25.00;58.50;;;;;;5136338;27;20434;-81
2022/06/03 12:32:53;;;;;;;13.00;11.70;;;25.00;58.40;;;;;;5134466;27;20445;-81
2022/06/03 12:35:50;;;;;;;12.93;11.23;;;25.00;58.60;;;;;;5133489;27;20820;-80
2022/06/03 12:38:35;;;;;;;9.43;8.63;;;25.00;58.60;;;;;;5135580;27;20489;-81
2022/06/03 12:41:06;;;;;;;10.30;9.23;;;25.00;58.60;;;;;;5134658;27;20439;-80
2022/06/03 12:43:49;;;;;;;8.87;7.97;;;25.00;58.60;;;;;;5131068;27;20938;-81
2022/06/03 12:46:42;;;;;;;8.50;7.70;;;25.00;58.50;;;;;;5115008;28;20553;-80
2022/06/03 12:49:36;;;;;;;9.30;8.40;;;25.00;58.50;;;;;;5115098;28;20467;-81
2022/06/03 12:52:08;;;;;;;9.67;8.57;;;25.00;58.50;;;;;;5114967;28;20526;-81
2022/06/03 12:54:37;;;;;;;9.13;8.33;;;25.00;58.60;;;;;;5115521;28;20439;-81
2022/06/03 12:57:10;;;;;;;7.43;6.70;;;25.00;58.70;;;;;;5114625;28;20479;-81
2022/06/03 12:59:44;;;;;;;9.73;8.47;;;25.00;58.70;;;;;;5114253;28;20487;-81
2022/06/03 13:02:17;;;;;;;6.90;6.20;;;25.00;58.70;;;;;;5114416;28;20526;-81
2022/06/03 13:05:25;;;;;;;6.67;6.03;;;25.00;58.60;;;;;;5124068;27;20462;-80
2022/06/03 13:08:12;;;;;;;5.27;4.80;;;25.00;58.50;;;;;;5135653;27;20457;-81
2022/06/03 13:10:55;;;;;;;7.80;7.10;;;25.00;58.60;;;;;;5135089;27;20774;-81
2022/06/03 13:13:49;;;;;;;6.83;6.23;;;25.00;58.70;;;;;;5135101;27;20524;-81
2022/06/03 13:16:41;;;;;;;6.37;5.77;;;25.00;58.70;;;;;;5135124;27;20480;-81
2022/06/03 13:19:42;;;;;;;5.50;5.10;;;25.00;58.70;;;;;;5095261;27;20542;-80
2022/06/03 13:22:09;;;;;;;5.50;5.10;;;25.00;58.70;;;;;;5114803;28;20435;-81
2022/06/03 13:24:37;;;;;;;5.60;5.10;;;24.90;58.70;;;;;;5114327;28;20488;-82
2022/06/03 13:27:10;;;;;;;4.67;4.10;;;25.00;58.60;;;;;;5114433;28;20443;-82
2022/06/03 13:30:13;;;;;;;4.73;4.30;;;25.00;59.20;;;;;;5114495;28;20447;-81
2022/06/03 13:32:51;;;;;;;5.60;5.10;;;25.00;58.50;;;;;;5051456;28;20496;-81
2022/06/03 13:35:22;;;;;;;4.40;4.10;;;25.00;58.60;;;;;;5106512;28;20554;-80
2022/06/03 13:37:51;;;;;;;8.23;4.50;;;25.00;58.50;;;;;;5114226;28;20479;-82
2022/06/03 13:40:31;;;;;;;4.90;4.50;;;25.00;58.50;;;;;;5114559;28;20522;-82
2022/06/03 13:43:20;;;;;;;4.27;3.97;;;25.00;58.60;;;;;;5114583;28;21025;-82
2022/06/03 13:45:59;;;;;;;4.80;4.37;;;25.00;58.60;;;;;;5133941;27;20530;-82
2022/06/03 13:48:33;;;;;;;7.43;4.70;;;25.10;58.70;;;;;;5134853;27;20481;-82
2022/06/03 13:51:28;;;;;;;4.90;4.50;;;25.10;58.70;;;;;;5129251;27;20854;-82
2022/06/03 13:53:58;;;;;;;4.30;3.90;;;25.10;58.60;;;;;;5119602;27;20448;-81
2022/06/03 13:56:28;;;;;;;4.30;4.00;;;25.00;58.70;;;;;;5113940;28;20835;-82
2022/06/03 13:58:56;;;;;;;4.97;4.23;;;25.00;58.70;;;;;;5114379;27;20580;-81
2022/06/03 14:01:29;;;;;;;4.57;4.17;;;25.10;58.80;;;;;;5130335;27;20474;-81
2022/06/03 14:04:02;;;;;;;4.47;4.07;;;25.10;58.80;;;;;;5134449;27;20820;-82
2022/06/03 14:06:34;;;;;;;4.30;4.00;;;25.10;58.80;;;;;;5134220;27;21016;-80
2022/06/03 14:09:15;;;;;;;3.53;3.10;;;25.10;58.70;;;;;;5118583;27;20534;-81
2022/06/03 14:11:45;;;;;;;4.57;4.17;;;25.10;58.70;;;;;;5115390;27;20450;-80
2022/06/03 14:14:20;;;;;;;8.80;3.90;;;25.10;58.80;;;;;;5113341;28;20476;-81
2022/06/03 14:16:53;;;;;;;4.10;3.80;;;25.00;58.80;;;;;;5120321;27;20868;-82
2022/06/03 14:19:33;;;;;;;4.40;4.00;;;25.10;58.70;;;;;;5134146;27;21136;-82
2022/06/03 14:22:07;;;;;;;4.00;3.70;;;25.10;58.90;;;;;;5134573;27;20434;-82
2022/06/03 14:24:38;;;;;;;4.07;3.77;;;25.00;58.90;;;;;;5134292;27;20472;-82
2022/06/03 14:27:12;;;;;;;3.70;3.40;;;25.10;59.00;;;;;;5133895;27;20482;-81
2022/06/03 14:29:44;;;;;;;4.60;4.30;;;25.10;59.10;;;;;;5133945;27;20520;-81
2022/06/03 14:32:15;;;;;;;3.67;3.47;;;25.10;59.10;;;;;;5134309;27;20434;-81